Time;durP1;ratioP1;P1;durP2;ratioP2;P2;SDS_P1;SDS_P2;PMS_P1;PMS_P2;Temp;Humidity;BMP_temperature;BMP_pressure;BME280_temperature;BME280_humidity;BME280_pressure;Samples;Min_cycle;Max_cycle;Signal;HPM_P1;HPM_P2
2024/03/17 00:02:53;;;;;;;0.00;0.00;;;;;;;4.39;65.19;101742.69;15610583;28;20041;-52
2024/03/17 00:10:27;;;;;;;0.03;0.03;;;;;;;4.41;64.47;101746.03;15603842;28;20045;-53
2024/03/17 00:18:04;;;;;;;0.10;0.10;;;;;;;4.21;64.96;101746.09;15607546;28;20053;-48
2024/03/17 00:25:39;;;;;;;0.43;0.32;;;;;;;4.13;65.53;101742.47;15610031;28;20034;-48
2024/03/17 00:33:14;;;;;;;0.00;0.00;;;;;;;4.29;65.12;101753.34;15603508;28;20052;-48
2024/03/17 00:40:49;;;;;;;0.10;0.10;;;;;;;4.34;65.31;101761.75;15601108;28;20050;-49
2024/03/17 00:48:24;;;;;;;0.00;0.00;;;;;;;4.01;66.58;101769.22;15604178;28;20045;-51
2024/03/17 00:55:58;;;;;;;1.00;0.93;;;;;;;4.02;65.90;101762.94;15599800;28;20135;-48
2024/03/17 01:03:34;;;;;;;0.40;0.40;;;;;;;4.19;65.75;101768.47;15610012;28;20130;-52
2024/03/17 01:11:17;;;;;;;0.00;0.00;;;;;;;4.00;65.71;101759.56;15603785;28;20048;-51
2024/03/17 01:19:10;;;;;;;0.00;0.00;;;;;;;3.98;65.97;101768.66;15617153;28;20045;-49
2024/03/17 01:26:46;;;;;;;0.15;0.15;;;;;;;3.66;66.75;101768.97;15613253;28;20116;-48
2024/03/17 01:34:31;;;;;;;1.27;0.85;;;;;;;3.76;66.60;101775.94;15588827;28;20065;-48
2024/03/17 01:42:04;;;;;;;0.00;0.00;;;;;;;3.56;66.64;101774.25;15603105;28;20087;-48
2024/03/17 01:49:53;;;;;;;0.40;0.40;;;;;;;3.39;66.49;101769.63;15608533;28;20465;-50
2024/03/17 01:57:35;;;;;;;0.10;0.10;;;;;;;2.89;68.66;101762.56;15607207;28;20053;-50
2024/03/17 02:05:10;;;;;;;0.00;0.00;;;;;;;3.34;67.81;101756.78;15607569;28;20390;-49
2024/03/17 02:12:47;;;;;;;0.00;0.00;;;;;;;3.20;68.07;101759.84;15610586;28;20433;-46
2024/03/17 02:20:54;;;;;;;0.00;0.00;;;;;;;2.84;70.05;101759.44;15604561;28;20044;-49
2024/03/17 02:28:17;;;;;;;0.00;0.00;;;;;;;3.00;69.89;101765.09;15599155;28;20037;-49
2024/03/17 02:35:52;;;;;;;0.00;0.00;;;;;;;2.87;70.94;101774.28;15586371;28;20045;-49
2024/03/17 02:43:32;;;;;;;0.10;0.10;;;;;;;2.83;70.96;101762.25;15607837;28;20360;-48
2024/03/17 02:51:10;;;;;;;0.30;0.28;;;;;;;2.91;71.36;101765.06;15604881;28;20069;-49
2024/03/17 02:58:51;;;;;;;0.00;0.00;;;;;;;2.95;71.84;101763.84;15597731;28;20045;-49
2024/03/17 03:06:32;;;;;;;0.20;0.20;;;;;;;3.21;71.53;101774.78;15599358;28;20530;-48
2024/03/17 03:14:09;;;;;;;0.00;0.00;;;;;;;2.86;72.69;101760.19;15612208;28;20073;-49
2024/03/17 03:21:42;;;;;;;0.00;0.00;;;;;;;3.03;72.27;101772.78;15589848;28;20099;-49
2024/03/17 03:29:17;;;;;;;0.00;0.00;;;;;;;2.75;74.23;101771.72;15600099;28;20045;-48
2024/03/17 03:36:51;;;;;;;0.28;0.28;;;;;;;2.87;74.11;101768.97;15607182;28;20410;-49
2024/03/17 03:44:28;;;;;;;0.00;0.00;;;;;;;2.92;73.95;101770.22;15593036;28;20600;-49
2024/03/17 03:52:05;;;;;;;0.10;0.10;;;;;;;2.54;75.63;101774.41;15601894;28;20049;-52
2024/03/17 03:59:44;;;;;;;0.00;0.00;;;;;;;2.48;76.66;101779.41;15605912;28;20038;-52
2024/03/17 04:07:18;;;;;;;0.00;0.00;;;;;;;2.79;75.93;101785.53;15592454;28;20348;-49
2024/03/17 04:14:55;;;;;;;0.00;0.00;;;;;;;2.41;76.69;101780.91;15622154;22;20413;-51
2024/03/17 04:22:29;;;;;;;0.00;0.00;;;;;;;2.64;76.25;101778.91;15590038;28;20100;-48
2024/03/17 04:30:06;;;;;;;0.00;0.00;;;;;;;2.39;78.27;101774.91;15596228;28;20045;-52
2024/03/17 04:37:41;;;;;;;0.00;0.00;;;;;;;2.46;78.25;101779.53;15604816;28;20050;-50
2024/03/17 04:45:20;;;;;;;0.45;0.45;;;;;;;2.89;76.04;101797.03;15611836;28;20077;-48
2024/03/17 04:52:53;;;;;;;0.00;0.00;;;;;;;2.51;77.56;101795.03;15622006;28;20128;-48
2024/03/17 05:00:29;;;;;;;0.00;0.00;;;;;;;2.74;76.23;101807.13;15618816;28;20136;-48
2024/03/17 05:08:25;;;;;;;0.68;0.40;;;;;;;2.23;78.38;101807.97;15628906;28;20136;-50
2024/03/17 05:16:03;;;;;;;0.40;0.40;;;;;;;2.41;77.91;101807.41;15609683;28;20070;-49
2024/03/17 05:23:38;;;;;;;0.05;0.05;;;;;;;2.29;78.39;101822.53;15616323;28;20041;-49
2024/03/17 05:31:17;;;;;;;0.10;0.10;;;;;;;2.19;78.21;101824.25;15605754;28;20053;-49
2024/03/17 05:38:53;;;;;;;0.00;0.00;;;;;;;3.15;76.65;101829.22;15603381;28;20042;-48
2024/03/17 05:46:30;;;;;;;0.00;0.00;;;;;;;3.56;73.18;101836.16;15607715;28;20041;-51
2024/03/17 05:54:05;;;;;;;1.08;1.08;;;;;;;2.44;78.30;101838.94;15622788;28;20045;-49
2024/03/17 06:01:44;;;;;;;0.00;0.00;;;;;;;2.45;78.76;101846.75;15616013;28;20135;-50
2024/03/17 06:09:19;;;;;;;0.00;0.00;;;;;;;2.73;78.19;101847.88;15609748;28;20049;-50
2024/03/17 06:16:54;;;;;;;0.00;0.00;;;;;;;3.06;78.31;101852.06;15621336;28;20053;-48
2024/03/17 06:24:29;;;;;;;0.03;0.03;;;;;;;3.13;78.27;101863.00;15614342;28;20545;-50
2024/03/17 06:32:05;;;;;;;0.10;0.10;;;;;;;3.14;78.49;101858.53;15617746;28;20049;-52
2024/03/17 06:39:40;;;;;;;0.00;0.00;;;;;;;3.68;76.43;101879.34;15588195;28;20157;-52
2024/03/17 06:47:19;;;;;;;0.00;0.00;;;;;;;4.15;75.06;101889.31;15610572;28;20040;-52
2024/03/17 06:54:53;;;;;;;0.00;0.00;;;;;;;5.59;68.38;101889.84;15617116;28;20049;-47
2024/03/17 07:02:29;;;;;;;0.05;0.05;;;;;;;7.41;62.81;101903.44;15616390;28;20041;-50
2024/03/17 07:10:05;;;;;;;0.55;0.40;;;;;;;7.64;60.34;101901.03;15601223;28;20096;-53
2024/03/17 07:17:40;;;;;;;0.00;0.00;;;;;;;7.38;61.41;101914.47;15608186;28;20037;-53
2024/03/17 07:25:14;;;;;;;1.27;1.17;;;;;;;8.04;59.59;101920.84;15606971;28;20080;-52
2024/03/17 07:32:50;;;;;;;0.00;0.00;;;;;;;7.14;61.49;101929.38;15595429;28;20747;-53
2024/03/17 07:40:24;;;;;;;0.00;0.00;;;;;;;7.66;59.50;101931.09;15583434;28;20274;-55
2024/03/17 07:47:59;;;;;;;0.00;0.00;;;;;;;8.52;56.35;101930.78;15598015;28;20038;-55
2024/03/17 07:55:36;;;;;;;0.20;0.20;;;;;;;8.27;57.63;101945.13;15597794;28;20042;-51
2024/03/17 08:03:11;;;;;;;0.00;0.00;;;;;;;9.08;54.88;101936.22;15586589;28;20050;-49
2024/03/17 08:10:46;;;;;;;0.28;0.22;;;;;;;8.89;55.98;101934.75;15593648;28;20038;-50
2024/03/17 08:18:21;;;;;;;0.40;0.35;;;;;;;10.19;51.60;101930.69;15601657;28;20025;-49
2024/03/17 08:26:01;;;;;;;0.55;0.35;;;;;;;11.33;47.49;101928.81;15596636;28;20486;-53
2024/03/17 08:33:36;;;;;;;0.00;0.00;;;;;;;8.23;54.72;101928.56;15599049;28;20050;-51
2024/03/17 08:41:13;;;;;;;0.00;0.00;;;;;;;9.96;51.64;101923.47;15602807;28;20044;-51
2024/03/17 08:48:48;;;;;;;0.00;0.00;;;;;;;9.89;53.07;101919.84;15590932;28;20044;-48
2024/03/17 08:56:23;;;;;;;0.00;0.00;;;;;;;10.10;50.18;101929.91;15581379;28;20047;-49
2024/03/17 09:04:01;;;;;;;0.45;0.22;;;;;;;10.27;50.19;101930.69;15592676;28;20037;-51
2024/03/17 09:11:41;;;;;;;3.00;1.55;;;;;;;8.99;52.75;101926.53;15568266;28;20056;-52
2024/03/17 09:19:20;;;;;;;0.00;0.00;;;;;;;9.35;51.33;101929.63;15607439;28;20037;-49
2024/03/17 09:26:58;;;;;;;0.00;0.00;;;;;;;9.99;49.77;101916.91;15598962;28;20651;-52
2024/03/17 09:34:33;;;;;;;0.00;0.00;;;;;;;10.08;49.09;101923.06;15596481;28;20045;-51
2024/03/17 09:42:18;;;;;;;4.85;0.15;;;;;;;10.22;47.61;101917.75;15607957;28;20046;-50
2024/03/17 09:49:54;;;;;;;0.00;0.00;;;;;;;11.07;44.16;101900.56;15614346;28;20421;-51
2024/03/17 09:57:30;;;;;;;0.03;0.03;;;;;;;11.49;43.03;101910.66;15608392;28;20506;-53
2024/03/17 10:05:19;;;;;;;27.38;0.70;;;;;;;13.29;42.71;101902.38;15604211;28;20045;-54
2024/03/17 10:12:54;;;;;;;0.00;0.00;;;;;;;11.04;44.84;101917.03;15610050;28;20050;-54
2024/03/17 10:20:29;;;;;;;0.00;0.00;;;;;;;10.38;45.30;101914.13;15566170;22;20054;-50
2024/03/17 10:28:11;;;;;;;0.00;0.00;;;;;;;11.18;43.10;101910.84;15541401;28;20479;-54
2024/03/17 10:35:46;;;;;;;0.00;0.00;;;;;;;12.18;42.57;101912.91;15536305;28;20041;-50
2024/03/17 10:43:25;;;;;;;0.20;0.20;;;;;;;13.09;41.48;101921.09;15525116;28;20398;-52
2024/03/17 10:51:02;;;;;;;0.10;0.10;;;;;;;13.14;40.45;101910.53;15531610;28;20137;-53
2024/03/17 10:58:40;;;;;;;0.00;0.00;;;;;;;12.51;40.82;101918.59;15541439;28;20042;-52
2024/03/17 11:06:16;;;;;;;1.55;0.65;;;;;;;11.86;43.46;101913.38;15511240;28;20045;-53
2024/03/17 11:13:50;;;;;;;0.10;0.10;;;;;;;10.76;45.20;101913.31;15528872;28;20041;-50
2024/03/17 11:21:28;;;;;;;0.00;0.00;;;;;;;9.96;46.49;101914.59;15517872;28;20437;-56
2024/03/17 11:29:06;;;;;;;0.00;0.00;;;;;;;11.03;43.04;101914.56;15519353;28;20104;-52
2024/03/17 11:36:41;;;;;;;0.05;0.05;;;;;;;10.65;42.82;101911.91;15520722;28;20045;-50
2024/03/17 11:44:26;;;;;;;0.60;0.20;;;;;;;12.61;40.27;101906.66;15481489;28;20508;-54
2024/03/17 11:52:05;;;;;;;0.00;0.00;;;;;;;11.55;39.90;101902.84;15482073;28;20154;-50
2024/03/17 11:59:40;;;;;;;0.00;0.00;;;;;;;13.77;40.92;101900.50;15499838;28;20061;-48
2024/03/17 12:07:18;;;;;;;0.00;0.00;;;;;;;15.42;35.81;101897.97;15515441;28;20046;-49
2024/03/17 12:14:53;;;;;;;0.13;0.13;;;;;;;15.53;34.65;101897.31;15524995;28;20122;-55
2024/03/17 12:22:33;;;;;;;0.00;0.00;;;;;;;13.38;37.95;101882.31;15525702;28;20518;-55
2024/03/17 12:30:11;;;;;;;0.00;0.00;;;;;;;15.16;36.38;101872.69;15534789;28;20426;-53
2024/03/17 12:37:47;;;;;;;0.43;0.43;;;;;;;14.76;36.30;101864.66;15510737;28;21403;-53
2024/03/17 12:45:22;;;;;;;0.10;0.10;;;;;;;15.14;35.78;101871.22;15524788;28;20033;-54
2024/03/17 12:52:57;;;;;;;2.22;0.98;;;;;;;15.55;34.05;101868.16;15521358;28;20480;-52
2024/03/17 13:00:32;;;;;;;0.10;0.10;;;;;;;15.11;34.91;101885.16;15521827;28;20104;-54
2024/03/17 13:08:09;;;;;;;5.00;1.23;;;;;;;14.56;36.15;101869.25;15504816;28;20444;-50
2024/03/17 13:15:44;;;;;;;0.35;0.28;;;;;;;14.46;37.50;101860.72;15520696;28;20057;-55
2024/03/17 13:23:21;;;;;;;0.00;0.00;;;;;;;15.01;36.59;101861.25;15527389;28;20073;-53
2024/03/17 13:30:55;;;;;;;0.50;0.50;;;;;;;15.38;33.76;101853.44;15511747;28;20165;-51
2024/03/17 13:38:30;;;;;;;0.00;0.00;;;;;;;14.72;34.88;101851.75;15516639;28;20038;-52
2024/03/17 13:46:04;;;;;;;0.08;0.08;;;;;;;14.30;35.27;101860.06;15522199;28;20046;-55
2024/03/17 13:53:39;;;;;;;0.00;0.00;;;;;;;12.00;40.79;101864.91;15498914;28;20555;-52
2024/03/17 14:01:13;;;;;;;0.00;0.00;;;;;;;11.23;42.10;101860.03;15511286;28;20606;-52
2024/03/17 14:08:48;;;;;;;0.00;0.00;;;;;;;10.50;41.80;101847.44;15530878;28;20052;-51
2024/03/17 14:16:23;;;;;;;0.00;0.00;;;;;;;11.84;40.28;101842.78;15524604;28;20526;-50
2024/03/17 14:23:59;;;;;;;0.00;0.00;;;;;;;11.78;40.19;101838.16;15518361;28;20407;-51
2024/03/17 14:31:36;;;;;;;0.00;0.00;;;;;;;11.87;40.39;101837.03;15527829;28;20128;-52
2024/03/17 14:39:11;;;;;;;0.00;0.00;;;;;;;11.99;40.65;101828.25;15521486;28;20034;-52
2024/03/17 14:46:45;;;;;;;0.00;0.00;;;;;;;10.87;41.87;101826.94;15527276;28;20046;-54
2024/03/17 14:54:21;;;;;;;0.10;0.10;;;;;;;11.31;40.59;101832.25;15542128;28;20497;-53
2024/03/17 15:01:55;;;;;;;0.00;0.00;;;;;;;10.06;42.95;101823.16;15550021;28;20368;-52
2024/03/17 15:09:32;;;;;;;7.90;2.35;;;;;;;10.82;41.00;101822.13;15550980;28;20041;-55
2024/03/17 15:17:06;;;;;;;0.00;0.00;;;;;;;11.43;40.65;101820.00;15549394;28;20112;-51
2024/03/17 15:24:41;;;;;;;0.00;0.00;;;;;;;10.59;40.05;101816.81;15551002;28;20038;-50
2024/03/17 15:32:15;;;;;;;0.70;0.70;;;;;;;10.23;41.29;101813.94;15549833;28;20391;-52
2024/03/17 15:39:50;;;;;;;0.00;0.00;;;;;;;9.67;43.11;101806.19;15545602;28;20100;-51
2024/03/17 15:47:25;;;;;;;0.00;0.00;;;;;;;9.51;44.56;101806.25;15529774;28;20061;-55
2024/03/17 15:55:02;;;;;;;0.00;0.00;;;;;;;9.85;44.54;101805.06;15564428;28;20052;-51
2024/03/17 16:02:37;;;;;;;0.00;0.00;;;;;;;9.37;43.70;101805.19;15540997;28;20037;-52
2024/03/17 16:10:19;;;;;;;0.00;0.00;;;;;;;9.91;42.89;101793.59;15547072;28;20042;-53
2024/03/17 16:17:54;;;;;;;;;;;;;;;9.32;43.71;101804.88;15531893;23;20141;-45
2024/03/17 16:25:30;;;;;;;0.00;0.00;;;;;;;9.96;43.01;101812.66;15534357;28;20113;-46
2024/03/17 16:33:05;;;;;;;0.00;0.00;;;;;;;9.99;43.06;101809.63;15532687;28;20478;-47
2024/03/17 16:40:41;;;;;;;0.00;0.00;;;;;;;9.57;45.04;101818.97;15523588;28;20039;-47
2024/03/17 16:48:16;;;;;;;0.00;0.00;;;;;;;9.19;45.64;101818.03;15538501;28;20042;-46
2024/03/17 16:55:51;;;;;;;0.00;0.00;;;;;;;9.09;45.83;101812.00;15555110;28;20490;-48
2024/03/17 17:03:26;;;;;;;0.00;0.00;;;;;;;9.41;45.71;101814.53;15539508;28;20062;-49
2024/03/17 17:11:02;;;;;;;0.00;0.00;;;;;;;9.64;45.31;101811.88;15537690;28;20058;-48
2024/03/17 17:18:51;;;;;;;0.45;0.30;;;;;;;9.28;46.36;101813.44;15544970;28;20053;-48
2024/03/17 17:26:28;;;;;;;0.10;0.10;;;;;;;9.12;46.09;101817.88;15541270;28;20038;-45
2024/03/17 17:34:02;;;;;;;0.00;0.00;;;;;;;9.18;46.13;101841.25;15541965;28;20046;-47
2024/03/17 17:41:37;;;;;;;0.05;0.05;;;;;;;8.86;47.00;101831.53;15552919;28;20379;-47
2024/03/17 17:49:11;;;;;;;0.10;0.10;;;;;;;8.63;47.27;101833.28;15550562;28;20134;-43
2024/03/17 17:56:46;;;;;;;0.00;0.00;;;;;;;8.36;49.00;101834.44;15536255;28;20314;-47
2024/03/17 18:04:21;;;;;;;0.52;0.52;;;;;;;8.03;49.94;101836.28;15527849;28;20503;-51
2024/03/17 18:11:56;;;;;;;0.10;0.10;;;;;;;7.83;49.75;101819.72;15544188;28;20077;-49
2024/03/17 18:19:30;;;;;;;0.47;0.47;;;;;;;7.63;50.73;101824.53;15544775;28;20034;-45
2024/03/17 18:27:05;;;;;;;0.20;0.20;;;;;;;7.32;51.88;101829.63;15545594;28;20105;-47
2024/03/17 18:34:39;;;;;;;0.25;0.25;;;;;;;7.24;52.47;101835.78;15548005;28;20054;-45
2024/03/17 18:42:14;;;;;;;0.10;0.10;;;;;;;6.62;53.38;101833.34;15549096;28;20105;-46
2024/03/17 18:49:51;;;;;;;0.10;0.10;;;;;;;6.84;52.92;101841.78;15549088;28;20050;-50
2024/03/17 18:57:26;;;;;;;0.38;0.38;;;;;;;6.83;52.81;101840.94;15548842;28;20046;-45
2024/03/17 19:05:00;;;;;;;0.30;0.30;;;;;;;6.64;54.50;101844.66;15546269;28;20111;-47
2024/03/17 19:12:36;;;;;;;0.10;0.10;;;;;;;6.17;55.62;101840.66;15547461;28;20100;-44
2024/03/17 19:20:13;;;;;;;0.47;0.47;;;;;;;6.22;55.51;101839.22;15538709;28;20115;-46
2024/03/17 19:27:48;;;;;;;0.95;0.85;;;;;;;5.83;56.44;101826.19;15544649;28;20406;-46
2024/03/17 19:35:22;;;;;;;0.10;0.10;;;;;;;5.92;56.87;101847.59;15546766;28;20099;-44
2024/03/17 19:42:57;;;;;;;0.10;0.10;;;;;;;4.08;60.15;101830.59;15545640;28;20457;-52
2024/03/17 19:50:31;;;;;;;0.08;0.08;;;;;;;4.41;59.58;101860.34;15543137;28;20553;-50
2024/03/17 19:58:07;;;;;;;0.00;0.00;;;;;;;4.25;61.08;101850.31;15544096;28;20064;-51
2024/03/17 20:05:42;;;;;;;0.57;0.52;;;;;;;4.19;60.88;101862.31;15543444;28;20479;-47
2024/03/17 20:13:17;;;;;;;0.85;0.85;;;;;;;4.35;60.58;101875.03;15543684;28;20140;-47
2024/03/17 20:20:52;;;;;;;0.75;0.75;;;;;;;4.05;61.04;101886.66;15541197;28;20145;-48
2024/03/17 20:28:28;;;;;;;0.00;0.00;;;;;;;4.37;59.85;101880.22;15536303;28;20123;-46
2024/03/17 20:36:05;;;;;;;0.00;0.00;;;;;;;3.82;61.33;101892.25;15540582;28;20135;-45
2024/03/17 20:43:41;;;;;;;0.10;0.10;;;;;;;4.23;60.50;101892.09;15540765;28;20038;-46
2024/03/17 20:51:17;;;;;;;0.00;0.00;;;;;;;3.51;62.45;101885.31;15532526;28;20152;-48
2024/03/17 20:58:53;;;;;;;0.00;0.00;;;;;;;3.52;62.43;101869.25;15541749;28;20487;-54
2024/03/17 21:06:32;;;;;;;0.00;0.00;;;;;;;3.24;63.64;101870.84;15539235;28;20058;-52
2024/03/17 21:14:07;;;;;;;0.73;0.43;;;;;;;3.33;63.81;101872.69;15537570;28;20045;-48
2024/03/17 21:21:41;;;;;;;0.50;0.50;;;;;;;3.26;64.29;101883.97;15540768;28;20073;-49
2024/03/17 21:29:19;;;;;;;0.00;0.00;;;;;;;3.07;65.46;101876.78;15536501;28;20038;-58
2024/03/17 21:36:53;;;;;;;0.00;0.00;;;;;;;2.75;66.98;101868.94;15543985;28;20053;-48
2024/03/17 21:44:28;;;;;;;0.17;0.15;;;;;;;3.01;66.48;101875.50;15550037;28;20164;-50
2024/03/17 21:52:02;;;;;;;0.00;0.00;;;;;;;3.16;65.26;101885.75;15548772;28;20209;-47
2024/03/17 21:59:38;;;;;;;0.28;0.28;;;;;;;2.58;67.55;101872.22;15551132;28;20399;-51
2024/03/17 22:07:12;;;;;;;1.05;0.60;;;;;;;2.45;68.11;101873.25;15547635;28;20045;-48
2024/03/17 22:14:48;;;;;;;1.10;0.30;;;;;;;2.42;68.45;101876.16;15560735;23;20072;-52
2024/03/17 22:22:22;;;;;;;0.00;0.00;;;;;;;1.92;70.69;101875.09;15563036;28;20043;-51
2024/03/17 22:29:57;;;;;;;0.00;0.00;;;;;;;2.16;70.33;101866.91;15483347;28;20295;-50
2024/03/17 22:37:31;;;;;;;0.00;0.00;;;;;;;2.11;69.92;101877.88;15489860;28;20046;-49
2024/03/17 22:45:10;;;;;;;0.20;0.20;;;;;;;2.19;69.43;101878.09;15492850;28;20053;-51
2024/03/17 22:52:45;;;;;;;0.00;0.00;;;;;;;1.90;70.05;101871.72;15482429;28;20096;-49
2024/03/17 23:00:29;;;;;;;0.00;0.00;;;;;;;2.02;70.27;101865.41;15481964;28;20121;-51
2024/03/17 23:08:07;;;;;;;0.00;0.00;;;;;;;2.18;68.74;101857.03;15483534;28;20109;-51
2024/03/17 23:15:44;;;;;;;0.00;0.00;;;;;;;1.53;71.54;101867.59;15477409;28;20050;-53
2024/03/17 23:23:18;;;;;;;0.10;0.10;;;;;;;2.18;69.84;101852.56;15475730;28;20537;-49
2024/03/17 23:30:53;;;;;;;0.00;0.00;;;;;;;1.91;70.03;101858.38;15499045;28;20046;-51
2024/03/17 23:38:26;;;;;;;0.00;0.00;;;;;;;1.73;70.69;101852.75;15480150;28;20538;-52
2024/03/17 23:46:02;;;;;;;0.00;0.00;;;;;;;1.81;70.10;101849.47;15475818;28;20080;-49
2024/03/17 23:53:36;;;;;;;0.08;0.08;;;;;;;2.16;68.21;101854.50;15485422;28;20157;-54
